createdAt,value
2017-09-21T00:01:23.108Z,30.63
2017-09-21T00:03:51.464Z,29.07
2017-09-21T00:06:19.703Z,30.10
2017-09-21T00:08:47.180Z,30.60
2017-09-21T00:11:15.528Z,28.70
2017-09-21T00:13:43.793Z,28.02
2017-09-21T00:16:12.028Z,26.92
2017-09-21T00:18:39.593Z,28.75
2017-09-21T00:21:07.823Z,29.00
2017-09-21T00:23:35.294Z,29.80
2017-09-21T00:26:03.556Z,28.87
2017-09-21T00:28:31.814Z,27.87
2017-09-21T00:31:00.056Z,28.48
2017-09-21T00:33:27.552Z,28.60
2017-09-21T00:35:55.015Z,29.00
2017-09-21T00:38:22.504Z,28.75
2017-09-21T00:40:50.001Z,28.17
2017-09-21T00:43:17.759Z,30.67
2017-09-21T00:45:45.231Z,28.12
2017-09-21T00:48:13.464Z,27.70
2017-09-21T00:50:41.143Z,28.08
2017-09-21T00:53:09.401Z,28.30
2017-09-21T00:55:37.665Z,28.52
2017-09-21T00:58:05.940Z,27.55
2017-09-21T01:00:33.469Z,27.20
2017-09-21T01:03:01.704Z,25.58
2017-09-21T01:05:29.272Z,26.52
2017-09-21T01:07:57.536Z,28.15
2017-09-21T01:10:25.773Z,26.52
2017-09-21T01:12:53.276Z,26.40
2017-09-21T01:15:20.793Z,26.75
2017-09-21T01:17:48.323Z,24.00
2017-09-21T01:20:16.780Z,26.02
2017-09-21T01:22:45.049Z,26.00
2017-09-21T01:25:13.279Z,23.60
2017-09-21T01:27:40.776Z,24.55
2017-09-21T01:30:08.288Z,24.90
2017-09-21T01:32:36.523Z,27.17
2017-09-21T01:35:04.024Z,24.50
2017-09-21T01:37:31.491Z,25.52
2017-09-21T01:39:59.044Z,25.65
2017-09-21T01:42:27.508Z,25.08
2017-09-21T01:44:55.753Z,25.10
2017-09-21T01:47:23.234Z,23.10
2017-09-21T01:49:50.968Z,22.58
2017-09-21T01:52:19.203Z,25.90
2017-09-21T01:54:46.763Z,24.45
2017-09-21T01:57:15.036Z,23.92
2017-09-21T01:59:42.580Z,24.00
2017-09-21T02:02:10.827Z,25.50
2017-09-21T02:04:39.195Z,25.20
2017-09-21T02:07:07.456Z,25.20
2017-09-21T02:09:35.684Z,25.30
2017-09-21T02:12:03.175Z,25.48
2017-09-21T02:14:30.796Z,23.73
2017-09-21T02:16:59.027Z,23.10
2017-09-21T02:19:26.599Z,24.15
2017-09-21T02:21:54.837Z,23.10
2017-09-21T02:24:22.316Z,21.65
2017-09-21T02:26:50.677Z,26.08
2017-09-21T02:29:19.016Z,24.20
2017-09-21T02:31:46.480Z,23.67
2017-09-21T02:34:14.750Z,22.35
2017-09-21T02:36:42.215Z,23.10
2017-09-21T02:39:09.689Z,23.50
2017-09-21T02:41:37.244Z,21.80
2017-09-21T02:44:04.721Z,21.80
2017-09-21T02:46:32.247Z,24.83
2017-09-21T02:49:00.516Z,24.23
2017-09-21T02:51:27.984Z,24.00
2017-09-21T02:53:55.465Z,23.30
2017-09-21T02:56:23.137Z,23.95
2017-09-21T02:58:50.607Z,22.08
2017-09-21T03:01:18.084Z,21.83
2017-09-21T03:03:45.768Z,23.92
2017-09-21T03:06:14.029Z,23.95
2017-09-21T03:08:42.258Z,22.98
2017-09-21T03:11:09.776Z,23.23
2017-09-21T03:13:37.238Z,22.50
2017-09-21T03:16:04.712Z,22.05
2017-09-21T03:18:32.984Z,21.67
2017-09-21T03:21:00.460Z,22.37
2017-09-21T03:23:27.955Z,22.83
2017-09-21T03:25:56.235Z,21.85
2017-09-21T03:28:23.708Z,23.58
2017-09-21T03:30:51.187Z,21.67
2017-09-21T03:33:18.752Z,21.98
2017-09-21T03:35:46.231Z,21.05
2017-09-21T03:38:14.464Z,23.50
2017-09-21T03:40:42.136Z,21.15
2017-09-21T03:43:10.375Z,22.55
2017-09-21T03:45:38.656Z,22.33
2017-09-21T03:48:06.907Z,21.95
2017-09-21T03:50:34.372Z,22.87
2017-09-21T03:53:01.901Z,21.23
2017-09-21T03:55:30.131Z,21.25
2017-09-21T03:57:57.804Z,24.25
2017-09-21T04:00:26.071Z,21.80
2017-09-21T04:02:54.332Z,22.17
2017-09-21T04:05:22.603Z,22.35
2017-09-21T04:07:51.058Z,25.35
2017-09-21T04:10:19.300Z,22.85
2017-09-21T04:12:46.862Z,22.60
2017-09-21T04:15:15.322Z,22.50
2017-09-21T04:17:43.559Z,23.90
2017-09-21T04:20:11.027Z,23.30
2017-09-21T04:22:39.284Z,22.98
2017-09-21T04:25:07.516Z,22.98
2017-09-21T04:27:35.088Z,23.48
2017-09-21T04:30:03.376Z,24.23
2017-09-21T04:32:30.849Z,22.65
2017-09-21T04:34:58.316Z,23.20
2017-09-21T04:37:25.807Z,22.70
2017-09-21T04:39:53.290Z,22.73
2017-09-21T04:42:20.808Z,22.92
2017-09-21T04:44:48.329Z,22.83
2017-09-21T04:47:16.584Z,23.83
2017-09-21T04:49:44.979Z,24.35
2017-09-21T04:52:12.492Z,24.67
2017-09-21T04:54:40.752Z,24.15
2017-09-21T04:57:09.132Z,25.52
2017-09-21T04:59:36.604Z,26.48
2017-09-21T05:02:04.097Z,26.33
2017-09-21T05:04:32.564Z,27.40
2017-09-21T05:07:00.800Z,25.08
2017-09-21T05:09:28.267Z,27.00
2017-09-21T05:11:56.536Z,27.55
2017-09-21T05:14:24.007Z,26.00
2017-09-21T05:16:51.483Z,27.02
2017-09-21T05:19:19.154Z,28.67
2017-09-21T05:21:46.624Z,29.37
2017-09-21T05:24:14.109Z,26.77
2017-09-21T05:26:41.791Z,28.33
2017-09-21T05:29:10.061Z,26.20
2017-09-21T05:31:38.296Z,26.35
2017-09-21T05:34:05.809Z,27.45
2017-09-21T05:36:33.280Z,26.98
2017-09-21T05:39:00.744Z,29.40
2017-09-21T05:41:28.239Z,26.85
2017-09-21T05:43:55.821Z,28.58
2017-09-21T05:46:24.047Z,27.15
2017-09-21T05:48:51.548Z,26.75
2017-09-21T05:51:19.236Z,28.65
2017-09-21T05:53:46.703Z,27.45
2017-09-21T05:56:15.181Z,26.35
2017-09-21T05:58:43.477Z,28.62
2017-09-21T06:01:10.949Z,27.70
2017-09-21T06:03:38.504Z,28.25
2017-09-21T06:06:06.768Z,29.05
2017-09-21T06:08:35.024Z,26.02
2017-09-21T06:11:03.318Z,28.12
2017-09-21T06:13:30.941Z,28.38
2017-09-21T06:15:59.197Z,27.90
2017-09-21T06:18:27.479Z,25.50
2017-09-21T06:20:54.996Z,28.67
2017-09-21T06:23:23.263Z,27.40
2017-09-21T06:25:51.499Z,27.05
2017-09-21T06:28:19.064Z,27.25
2017-09-21T06:30:47.319Z,26.17
2017-09-21T06:33:15.583Z,29.70
2017-09-21T06:35:43.820Z,27.20
2017-09-21T06:38:11.292Z,26.30
2017-09-21T06:40:39.548Z,28.65
2017-09-21T06:43:07.116Z,27.98
2017-09-21T06:45:35.352Z,25.37
2017-09-21T06:48:02.952Z,27.23
2017-09-21T06:50:30.485Z,27.83
2017-09-21T06:52:57.986Z,28.75
2017-09-21T06:55:25.551Z,26.45
2017-09-21T06:57:53.786Z,27.67
2017-09-21T07:00:21.263Z,24.60
2017-09-21T07:02:49.536Z,26.73
2017-09-21T07:05:17.009Z,25.95
2017-09-21T07:07:44.476Z,24.02
2017-09-21T07:10:12.031Z,23.90
2017-09-21T07:12:40.305Z,22.52
2017-09-21T07:15:08.544Z,23.38
2017-09-21T07:17:36.065Z,23.12
2017-09-21T07:20:03.564Z,21.35
2017-09-21T07:22:31.035Z,20.60
2017-09-21T07:24:58.740Z,21.80
2017-09-21T07:27:26.971Z,24.03
2017-09-21T07:29:54.540Z,21.42
2017-09-21T07:32:22.811Z,21.90
2017-09-21T07:34:51.039Z,22.60
2017-09-21T07:37:18.509Z,21.27
2017-09-21T07:39:46.776Z,21.30
2017-09-21T07:42:14.241Z,20.80
2017-09-21T07:44:42.475Z,20.63
2017-09-21T07:47:09.952Z,19.27
2017-09-21T07:49:38.184Z,20.03
2017-09-21T07:52:05.648Z,19.97
2017-09-21T07:54:33.920Z,17.73
2017-09-21T07:57:02.153Z,18.17
2017-09-21T07:59:29.721Z,19.03
2017-09-21T08:01:58.032Z,16.97
2017-09-21T08:04:25.512Z,17.30
2017-09-21T08:06:53.061Z,17.23
2017-09-21T08:09:21.320Z,17.60
2017-09-21T08:11:49.544Z,17.80
2017-09-21T08:14:17.228Z,17.30
2017-09-21T08:16:45.452Z,16.00
2017-09-21T08:19:12.921Z,15.80
2017-09-21T08:21:41.340Z,14.90
2017-09-21T08:24:08.800Z,15.83
2017-09-21T08:26:36.260Z,16.13
2017-09-21T08:29:03.836Z,15.00
2017-09-21T08:31:33.079Z,12.87
2017-09-21T08:34:00.724Z,13.23
2017-09-21T08:36:28.224Z,11.77
2017-09-21T08:38:55.727Z,11.73
2017-09-21T08:41:23.193Z,12.57
2017-09-21T08:43:50.818Z,11.93
2017-09-21T08:46:19.086Z,14.30
2017-09-21T08:48:47.303Z,12.37
2017-09-21T08:51:14.875Z,11.37
2017-09-21T08:53:43.107Z,12.00
2017-09-21T08:56:10.680Z,12.00
2017-09-21T08:58:39.140Z,11.43
2017-09-21T09:01:06.689Z,12.10
2017-09-21T09:03:34.944Z,12.07
2017-09-21T09:06:02.619Z,11.40
2017-09-21T09:08:30.086Z,11.10
2017-09-21T09:10:57.587Z,10.70
2017-09-21T09:13:25.124Z,10.20
2017-09-21T09:15:53.352Z,9.83
2017-09-21T09:18:20.811Z,9.60
2017-09-21T09:20:48.467Z,9.67
2017-09-21T09:23:16.696Z,9.57
2017-09-21T09:25:44.165Z,10.03
2017-09-21T09:28:11.636Z,8.60
2017-09-21T09:30:39.111Z,9.40
2017-09-21T09:33:06.571Z,9.90
2017-09-21T09:35:34.241Z,9.63
2017-09-21T09:38:02.476Z,9.57
2017-09-21T09:40:29.951Z,9.93
2017-09-21T09:42:57.448Z,9.40
2017-09-21T09:45:24.909Z,9.90
2017-09-21T09:47:52.374Z,10.07
2017-09-21T09:50:20.045Z,8.93
2017-09-21T09:52:47.498Z,9.70
2017-09-21T09:55:15.744Z,9.70
2017-09-21T09:57:44.009Z,10.37
2017-09-21T10:00:12.277Z,9.00
2017-09-21T10:02:40.729Z,9.60
2017-09-21T10:05:08.275Z,9.00
2017-09-21T10:07:36.539Z,10.03
2017-09-21T10:10:04.776Z,9.30
2017-09-21T10:12:33.160Z,8.20
2017-09-21T10:15:01.424Z,9.90
2017-09-21T10:17:29.656Z,10.30
2017-09-21T10:19:57.300Z,9.80
2017-09-21T10:22:24.761Z,10.63
2017-09-21T10:24:52.219Z,9.50
2017-09-21T10:27:20.672Z,11.50
2017-09-21T10:29:48.220Z,10.50
2017-09-21T10:32:16.448Z,8.80
2017-09-21T10:34:43.919Z,10.53
2017-09-21T10:37:12.176Z,10.40
2017-09-21T10:39:40.640Z,10.20
2017-09-21T10:42:08.100Z,11.37
2017-09-21T10:44:35.655Z,11.10
2017-09-21T10:47:03.405Z,9.87
2017-09-21T10:49:30.876Z,9.90
2017-09-21T10:51:59.096Z,9.60
2017-09-21T10:54:26.752Z,11.23
2017-09-21T10:56:54.295Z,9.23
2017-09-21T10:59:21.759Z,10.23
2017-09-21T11:01:50.026Z,9.90
2017-09-21T11:04:17.551Z,11.07
2017-09-21T11:06:45.807Z,9.30
2017-09-21T11:09:13.445Z,9.30
2017-09-21T11:11:40.987Z,9.40
2017-09-21T11:14:08.449Z,8.73
2017-09-21T11:16:36.891Z,9.77
2017-09-21T11:19:04.441Z,8.80
2017-09-21T11:21:31.900Z,9.40
2017-09-21T11:24:00.163Z,8.30
2017-09-21T11:26:28.396Z,8.30
2017-09-21T11:28:55.948Z,8.00
2017-09-21T11:31:24.195Z,7.17
2017-09-21T11:33:51.648Z,6.00
2017-09-21T11:36:19.103Z,5.90
2017-09-21T11:38:47.556Z,7.30
2017-09-21T11:41:15.817Z,5.43
2017-09-21T11:43:43.271Z,5.47
2017-09-21T11:46:10.907Z,6.10
2017-09-21T11:48:38.355Z,5.30
2017-09-21T11:51:05.812Z,5.03
2017-09-21T11:53:33.345Z,4.70
2017-09-21T11:56:00.801Z,5.40
2017-09-21T11:58:28.270Z,6.03
2017-09-21T12:00:55.937Z,5.03
2017-09-21T12:03:23.395Z,5.77
2017-09-21T12:05:51.635Z,6.87
2017-09-21T12:08:19.123Z,6.20
2017-09-21T12:10:46.636Z,5.63
2017-09-21T12:13:14.884Z,4.90
2017-09-21T12:15:42.381Z,4.80
2017-09-21T12:18:09.868Z,4.30
2017-09-21T12:20:38.089Z,5.20
2017-09-21T12:23:05.672Z,5.03
2017-09-21T12:25:33.941Z,5.03
2017-09-21T12:28:02.205Z,6.50
2017-09-21T12:30:29.741Z,5.60
2017-09-21T12:32:57.961Z,5.40
2017-09-21T12:35:25.441Z,5.37
2017-09-21T12:37:53.674Z,5.03
2017-09-21T12:40:21.144Z,4.57
2017-09-21T12:42:48.811Z,4.10
2017-09-21T12:45:16.269Z,3.60
2017-09-21T12:47:44.517Z,4.40
2017-09-21T12:50:12.785Z,4.27
2017-09-21T12:52:41.035Z,3.73
2017-09-21T12:55:08.488Z,4.40
2017-09-21T12:57:36.836Z,4.00
2017-09-21T13:00:04.298Z,3.63
2017-09-21T13:02:32.532Z,3.90
2017-09-21T13:05:00.186Z,3.50
2017-09-21T13:07:27.640Z,3.57
2017-09-21T13:09:55.860Z,3.47
2017-09-21T13:12:23.433Z,3.60
2017-09-21T13:14:50.977Z,3.70
2017-09-21T13:17:19.207Z,4.10
2017-09-21T13:19:46.780Z,4.07
2017-09-21T13:22:14.321Z,3.30
2017-09-21T13:24:41.866Z,4.73
2017-09-21T13:27:09.320Z,4.13
2017-09-21T13:29:37.540Z,3.40
2017-09-21T13:32:05.040Z,3.80
2017-09-21T13:34:32.501Z,3.37
2017-09-21T13:37:00.000Z,3.50
2017-09-21T13:39:28.353Z,3.63
2017-09-21T13:41:55.917Z,4.13
2017-09-21T13:44:23.461Z,4.90
2017-09-21T13:46:51.715Z,4.13
2017-09-21T13:49:19.167Z,3.57
2017-09-21T13:51:47.455Z,3.93
2017-09-21T13:54:15.060Z,3.40
2017-09-21T13:56:42.604Z,3.90
2017-09-21T13:59:10.152Z,3.93
2017-09-21T14:01:38.511Z,3.43
2017-09-21T14:04:05.973Z,4.40
2017-09-21T14:06:34.222Z,3.73
2017-09-21T14:09:02.484Z,4.70
2017-09-21T14:11:31.942Z,4.50
2017-09-21T14:13:59.506Z,3.83
2017-09-21T14:16:27.760Z,3.40
2017-09-21T14:18:55.979Z,4.00
2017-09-21T14:21:23.432Z,3.70
2017-09-21T14:23:50.908Z,3.83
2017-09-21T14:26:19.152Z,3.97
2017-09-21T14:28:46.607Z,4.17
2017-09-21T14:31:15.589Z,4.80
2017-09-21T14:33:43.832Z,3.90
2017-09-21T14:36:11.391Z,4.20
2017-09-21T14:38:38.844Z,3.60
2017-09-21T14:41:07.088Z,4.03
2017-09-21T14:43:35.312Z,3.80
2017-09-21T14:46:02.778Z,2.83
2017-09-21T14:48:30.240Z,4.30
2017-09-21T14:50:58.505Z,4.00
2017-09-21T14:53:26.760Z,3.97
2017-09-21T14:55:54.980Z,3.93
2017-09-21T14:58:22.460Z,4.10
2017-09-21T15:00:50.728Z,4.13
2017-09-21T15:03:18.189Z,3.00
2017-09-21T15:05:45.644Z,3.20
2017-09-21T15:08:13.344Z,2.90
2017-09-21T15:10:41.564Z,3.50
2017-09-21T15:13:09.043Z,3.20
2017-09-21T15:15:36.535Z,3.70
2017-09-21T15:18:04.090Z,3.10
2017-09-21T15:20:31.575Z,2.90
2017-09-21T15:22:59.842Z,3.10
2017-09-21T15:25:28.076Z,3.03
2017-09-21T15:27:55.544Z,3.13
2017-09-21T15:30:23.999Z,4.13
2017-09-21T15:32:51.456Z,3.53
2017-09-21T15:35:19.676Z,3.67
2017-09-21T15:37:47.247Z,2.70
2017-09-21T15:40:15.513Z,3.43
2017-09-21T15:42:43.768Z,3.27
2017-09-21T15:45:11.316Z,3.40
2017-09-21T15:47:38.791Z,3.60
2017-09-21T15:50:06.249Z,3.17
2017-09-21T15:52:33.715Z,4.00
2017-09-21T15:55:01.198Z,5.03
2017-09-21T15:57:29.417Z,4.20
2017-09-21T15:59:56.880Z,4.70
2017-09-21T16:02:24.423Z,4.13
2017-09-21T16:04:52.644Z,4.00
2017-09-21T16:07:20.099Z,3.90
2017-09-21T16:09:47.592Z,4.80
2017-09-21T16:12:15.044Z,4.80
2017-09-21T16:14:42.496Z,3.97
2017-09-21T16:17:09.999Z,4.43
2017-09-21T16:19:38.248Z,4.17
2017-09-21T16:22:05.712Z,3.73
2017-09-21T16:24:33.980Z,4.90
2017-09-21T16:27:01.505Z,4.63
2017-09-21T16:29:29.729Z,5.30
2017-09-21T16:31:57.299Z,4.30
2017-09-21T16:34:24.756Z,5.97
2017-09-21T16:36:52.976Z,7.80
2017-09-21T16:39:20.549Z,5.13
2017-09-21T16:41:48.804Z,5.23
2017-09-21T16:44:16.255Z,5.03
2017-09-21T16:46:43.731Z,4.93
2017-09-21T16:49:11.828Z,5.07
2017-09-21T16:51:39.283Z,5.97
2017-09-21T16:54:07.035Z,7.30
2017-09-21T16:56:35.260Z,7.63
2017-09-21T16:59:02.720Z,7.47
2017-09-21T17:01:30.241Z,8.77
2017-09-21T17:03:57.688Z,6.70
2017-09-21T17:06:25.168Z,7.17
2017-09-21T17:08:53.732Z,6.57
2017-09-21T17:11:22.036Z,8.07
2017-09-21T17:13:49.531Z,7.00
2017-09-21T17:16:17.024Z,6.63
2017-09-21T17:18:44.479Z,8.43
2017-09-21T17:21:11.967Z,7.23
2017-09-21T17:23:40.483Z,6.97
2017-09-21T17:26:07.940Z,7.23
2017-09-21T17:28:35.523Z,12.57
2017-09-21T17:31:03.781Z,9.20
2017-09-21T17:33:31.524Z,11.40
2017-09-21T17:35:59.792Z,8.43
2017-09-21T17:38:28.021Z,8.20
2017-09-21T17:40:55.513Z,8.00
2017-09-21T17:43:23.023Z,7.80
2017-09-21T17:45:50.568Z,7.53
2017-09-21T17:48:18.944Z,8.40
2017-09-21T17:50:47.169Z,7.70
2017-09-21T17:53:14.611Z,8.50
2017-09-21T17:55:42.103Z,7.93
2017-09-21T17:58:09.616Z,9.10
2017-09-21T18:00:38.024Z,9.97
2017-09-21T18:03:05.729Z,9.37
2017-09-21T18:05:34.005Z,10.60
2017-09-21T18:08:01.554Z,11.47
2017-09-21T18:10:29.027Z,13.70
2017-09-21T18:12:56.499Z,11.33
2017-09-21T18:15:24.161Z,9.67
2017-09-21T18:17:51.625Z,9.30
2017-09-21T18:20:19.858Z,10.53
2017-09-21T18:22:48.152Z,17.77
2017-09-21T18:25:16.384Z,30.20
2017-09-21T18:27:44.612Z,11.17
2017-09-21T18:30:12.092Z,10.87
2017-09-21T18:32:40.319Z,9.87
2017-09-21T18:35:07.787Z,13.83
2017-09-21T18:37:36.043Z,17.73
2017-09-21T18:40:04.293Z,15.40
2017-09-21T18:42:31.752Z,15.40
2017-09-21T18:45:00.033Z,13.87
2017-09-21T18:47:27.487Z,16.50
2017-09-21T18:49:54.991Z,13.73
2017-09-21T18:52:23.243Z,14.97
2017-09-21T18:54:52.220Z,16.03
2017-09-21T18:57:19.816Z,16.10
2017-09-21T18:59:47.311Z,16.40
2017-09-21T19:02:14.824Z,20.30
2017-09-21T19:04:42.304Z,17.03
2017-09-21T19:07:10.569Z,15.10
2017-09-21T19:09:38.791Z,16.03
2017-09-21T19:12:06.385Z,17.57
2017-09-21T19:14:33.877Z,15.23
2017-09-21T19:17:01.511Z,17.13
2017-09-21T19:19:28.979Z,18.60
2017-09-21T19:21:56.463Z,22.40
2017-09-21T19:24:24.563Z,18.90
2017-09-21T19:26:52.588Z,18.50
2017-09-21T19:29:20.292Z,19.33
2017-09-21T19:31:48.520Z,19.00
2017-09-21T19:34:17.395Z,21.33
2017-09-21T19:36:45.715Z,23.07
2017-09-21T19:39:13.952Z,21.20
2017-09-21T19:41:41.492Z,21.30
2017-09-21T19:44:09.737Z,21.83
2017-09-21T19:46:37.209Z,20.80
2017-09-21T19:49:05.453Z,20.90
2017-09-21T19:51:33.689Z,21.23
2017-09-21T19:54:01.157Z,23.57
2017-09-21T19:56:29.428Z,22.13
2017-09-21T19:58:57.841Z,23.37
2017-09-21T20:01:26.121Z,23.00
2017-09-21T20:03:53.595Z,22.70
2017-09-21T20:06:22.729Z,21.67
2017-09-21T20:08:50.308Z,22.00
2017-09-21T20:11:18.551Z,22.57
2017-09-21T20:13:46.028Z,22.60
2017-09-21T20:16:13.552Z,22.57
2017-09-21T20:18:42.001Z,23.90
2017-09-21T20:21:09.503Z,21.27
2017-09-21T20:23:36.980Z,23.13
2017-09-21T20:26:04.548Z,22.40
2017-09-21T20:28:32.097Z,22.90
2017-09-21T20:31:00.456Z,23.70
2017-09-21T20:33:28.691Z,25.07
2017-09-21T20:35:56.329Z,23.43
2017-09-21T20:38:23.903Z,23.40
2017-09-21T20:40:52.134Z,23.67
2017-09-21T20:43:19.608Z,22.33
2017-09-21T20:45:48.060Z,24.17
2017-09-21T20:48:15.615Z,22.47
2017-09-21T20:50:43.841Z,23.90
2017-09-21T20:53:11.526Z,23.10
2017-09-21T20:55:39.387Z,23.60
2017-09-21T20:58:06.851Z,23.60
2017-09-21T21:00:34.332Z,23.90
2017-09-21T21:03:01.809Z,24.67
2017-09-21T21:05:30.172Z,25.00
2017-09-21T21:07:57.693Z,23.73
2017-09-21T21:10:25.151Z,22.17
2017-09-21T21:12:53.599Z,23.40
2017-09-21T21:15:21.860Z,23.23
2017-09-21T21:17:50.132Z,24.70
2017-09-21T21:20:18.387Z,24.67
2017-09-21T21:22:45.852Z,22.77
2017-09-21T21:25:13.316Z,22.50
2017-09-21T21:27:41.572Z,24.97
2017-09-21T21:30:09.145Z,22.67
2017-09-21T21:32:36.660Z,24.50
2017-09-21T21:35:04.927Z,24.50
2017-09-21T21:37:33.167Z,24.17
2017-09-21T21:40:02.165Z,26.03
2017-09-21T21:42:30.428Z,26.37
2017-09-21T21:44:58.656Z,25.43
2017-09-21T21:47:26.115Z,23.97
2017-09-21T21:49:54.396Z,24.40
2017-09-21T21:52:22.021Z,24.57
2017-09-21T21:54:50.256Z,24.40
2017-09-21T21:57:17.732Z,24.17
2017-09-21T21:59:45.977Z,26.77
2017-09-21T22:02:13.443Z,25.27
2017-09-21T22:04:40.964Z,25.13
2017-09-21T22:07:08.437Z,25.27
2017-09-21T22:09:35.905Z,25.30
2017-09-21T22:12:03.504Z,25.60
2017-09-21T22:14:31.728Z,26.57
2017-09-21T22:16:59.304Z,24.90
2017-09-21T22:19:27.545Z,26.03
2017-09-21T22:21:55.003Z,25.00
2017-09-21T22:24:22.509Z,25.07
2017-09-21T22:26:49.968Z,23.80
2017-09-21T22:29:17.436Z,25.00
2017-09-21T22:31:45.001Z,23.87
2017-09-21T22:34:13.270Z,24.80
2017-09-21T22:36:41.492Z,25.40
2017-09-21T22:39:08.993Z,25.67
2017-09-21T22:41:36.456Z,23.73
2017-09-21T22:44:03.915Z,25.10
2017-09-21T22:46:31.484Z,26.13
2017-09-21T22:48:59.712Z,25.47
2017-09-21T22:51:27.191Z,24.73
2017-09-21T22:53:55.415Z,25.70
2017-09-21T22:56:22.874Z,26.33
2017-09-21T22:58:50.431Z,25.67
2017-09-21T23:01:18.696Z,25.37
2017-09-21T23:03:46.956Z,25.80
2017-09-21T23:06:15.197Z,26.20
2017-09-21T23:08:42.669Z,27.50
2017-09-21T23:11:11.020Z,26.40
2017-09-21T23:13:39.394Z,26.10
2017-09-21T23:16:07.620Z,24.67
2017-09-21T23:18:35.084Z,25.80
2017-09-21T23:21:03.320Z,25.87
2017-09-21T23:23:30.788Z,23.90
2017-09-21T23:25:58.279Z,24.07
2017-09-21T23:28:25.744Z,26.57
2017-09-21T23:30:53.203Z,25.80
2017-09-21T23:33:20.710Z,27.07
2017-09-21T23:35:48.168Z,25.40
2017-09-21T23:38:15.656Z,25.30
2017-09-21T23:40:44.060Z,25.53
2017-09-21T23:43:11.561Z,24.90
2017-09-21T23:45:39.825Z,24.30
2017-09-21T23:48:08.283Z,23.87
2017-09-21T23:50:36.522Z,24.97
2017-09-21T23:53:03.996Z,26.43
2017-09-21T23:55:32.448Z,24.30
2017-09-21T23:57:59.916Z,25.27
